sensor_id;sensor_type;location;lat;lon;timestamp;pressure;altitude;pressure_sealevel;temperature;humidity
76753;BME280;65687;51.308;16.916;2024-02-26T00:03:25;98622.50;;;2.42;96.37
76753;BME280;65687;51.308;16.916;2024-02-26T00:08:27;98620.88;;;2.36;96.33
76753;BME280;65687;51.308;16.916;2024-02-26T00:13:29;98620.03;;;2.36;96.29
76753;BME280;65687;51.308;16.916;2024-02-26T00:18:30;98618.80;;;2.33;96.26
76753;BME280;65687;51.308;16.916;2024-02-26T00:23:32;98614.05;;;2.25;96.21
76753;BME280;65687;51.308;16.916;2024-02-26T00:28:34;98616.27;;;2.24;96.48
76753;BME280;65687;51.308;16.916;2024-02-26T00:33:35;98612.36;;;2.21;96.86
76753;BME280;65687;51.308;16.916;2024-02-26T00:38:37;98611.20;;;2.16;96.65
76753;BME280;65687;51.308;16.916;2024-02-26T00:43:39;98608.48;;;2.18;97.29
76753;BME280;65687;51.308;16.916;2024-02-26T00:48:43;98607.42;;;2.19;97.26
76753;BME280;65687;51.308;16.916;2024-02-26T00:53:45;98610.41;;;2.19;97.31
76753;BME280;65687;51.308;16.916;2024-02-26T00:58:47;98609.09;;;2.21;97.61
76753;BME280;65687;51.308;16.916;2024-02-26T01:03:48;98604.34;;;2.22;97.56
76753;BME280;65687;51.308;16.916;2024-02-26T01:08:50;98607.77;;;2.21;97.38
76753;BME280;65687;51.308;16.916;2024-02-26T01:13:51;98601.74;;;2.21;97.73
76753;BME280;65687;51.308;16.916;2024-02-26T01:18:58;98595.90;;;2.25;98.04
76753;BME280;65687;51.308;16.916;2024-02-26T01:23:59;98587.98;;;2.29;98.04
76753;BME280;65687;51.308;16.916;2024-02-26T01:29:01;98593.20;;;2.31;97.77
76753;BME280;65687;51.308;16.916;2024-02-26T01:34:02;98587.02;;;2.31;97.52
76753;BME280;65687;51.308;16.916;2024-02-26T01:39:04;98589.40;;;2.25;97.18
76753;BME280;65687;51.308;16.916;2024-02-26T01:44:06;98583.14;;;2.13;97.08
76753;BME280;65687;51.308;16.916;2024-02-26T01:49:11;98574.20;;;2.10;97.34
76753;BME280;65687;51.308;16.916;2024-02-26T01:54:14;98583.16;;;2.12;97.96
76753;BME280;65687;51.308;16.916;2024-02-26T01:59:16;98579.12;;;2.11;97.77
76753;BME280;65687;51.308;16.916;2024-02-26T02:04:18;98574.33;;;2.11;97.92
76753;BME280;65687;51.308;16.916;2024-02-26T02:09:20;98575.33;;;2.09;97.54
76753;BME280;65687;51.308;16.916;2024-02-26T02:14:25;98570.64;;;2.07;97.76
76753;BME280;65687;51.308;16.916;2024-02-26T02:19:26;98569.31;;;1.99;97.46
76753;BME280;65687;51.308;16.916;2024-02-26T02:24:28;98567.64;;;1.96;97.56
76753;BME280;65687;51.308;16.916;2024-02-26T02:29:30;98562.90;;;1.97;97.81
76753;BME280;65687;51.308;16.916;2024-02-26T02:34:32;98565.99;;;1.96;97.94
76753;BME280;65687;51.308;16.916;2024-02-26T02:39:35;98572.12;;;1.96;97.86
76753;BME280;65687;51.308;16.916;2024-02-26T02:44:37;98570.45;;;1.91;97.69
76753;BME280;65687;51.308;16.916;2024-02-26T02:49:38;98571.90;;;1.91;98.30
76753;BME280;65687;51.308;16.916;2024-02-26T02:54:40;98573.10;;;1.89;98.33
76753;BME280;65687;51.308;16.916;2024-02-26T02:59:43;98574.10;;;1.87;98.43
76753;BME280;65687;51.308;16.916;2024-02-26T03:04:45;98573.05;;;1.88;98.88
76753;BME280;65687;51.308;16.916;2024-02-26T03:09:46;98570.27;;;1.98;99.89
76753;BME280;65687;51.308;16.916;2024-02-26T03:14:48;98561.02;;;2.18;100.00
76753;BME280;65687;51.308;16.916;2024-02-26T03:19:50;98563.55;;;2.34;100.00
76753;BME280;65687;51.308;16.916;2024-02-26T03:24:54;98563.63;;;2.55;100.00
76753;BME280;65687;51.308;16.916;2024-02-26T03:29:56;98553.92;;;2.67;100.00
76753;BME280;65687;51.308;16.916;2024-02-26T03:34:58;98549.27;;;2.67;100.00
76753;BME280;65687;51.308;16.916;2024-02-26T03:40:00;98551.48;;;2.65;100.00
76753;BME280;65687;51.308;16.916;2024-02-26T03:45:02;98550.84;;;2.68;100.00
76753;BME280;65687;51.308;16.916;2024-02-26T03:50:04;98547.14;;;2.73;100.00
76753;BME280;65687;51.308;16.916;2024-02-26T03:55:07;98546.20;;;2.80;100.00
76753;BME280;65687;51.308;16.916;2024-02-26T04:00:10;98550.98;;;2.95;100.00
76753;BME280;65687;51.308;16.916;2024-02-26T04:05:12;98558.23;;;3.12;100.00
76753;BME280;65687;51.308;16.916;2024-02-26T04:10:14;98558.11;;;3.33;100.00
76753;BME280;65687;51.308;16.916;2024-02-26T04:15:16;98559.75;;;3.44;100.00
76753;BME280;65687;51.308;16.916;2024-02-26T04:20:18;98557.80;;;3.50;100.00
76753;BME280;65687;51.308;16.916;2024-02-26T04:25:19;98557.95;;;3.47;100.00
76753;BME280;65687;51.308;16.916;2024-02-26T04:30:21;98559.20;;;3.41;100.00
76753;BME280;65687;51.308;16.916;2024-02-26T04:35:23;98556.75;;;3.37;100.00
76753;BME280;65687;51.308;16.916;2024-02-26T04:40:24;98552.61;;;3.35;100.00
76753;BME280;65687;51.308;16.916;2024-02-26T04:45:26;98556.71;;;3.32;100.00
76753;BME280;65687;51.308;16.916;2024-02-26T04:50:28;98558.10;;;3.26;100.00
76753;BME280;65687;51.308;16.916;2024-02-26T04:55:29;98559.45;;;3.22;100.00
76753;BME280;65687;51.308;16.916;2024-02-26T05:00:31;98558.88;;;3.25;100.00
76753;BME280;65687;51.308;16.916;2024-02-26T05:05:32;98561.80;;;3.27;100.00
76753;BME280;65687;51.308;16.916;2024-02-26T05:10:34;98566.83;;;3.22;100.00
76753;BME280;65687;51.308;16.916;2024-02-26T05:15:40;98569.46;;;3.26;100.00
76753;BME280;65687;51.308;16.916;2024-02-26T05:20:42;98570.97;;;3.15;100.00
76753;BME280;65687;51.308;16.916;2024-02-26T05:25:43;98569.38;;;3.05;100.00
76753;BME280;65687;51.308;16.916;2024-02-26T05:30:48;98567.98;;;3.11;100.00
76753;BME280;65687;51.308;16.916;2024-02-26T05:35:50;98573.02;;;3.16;100.00
76753;BME280;65687;51.308;16.916;2024-02-26T05:40:51;98570.46;;;3.26;100.00
76753;BME280;65687;51.308;16.916;2024-02-26T05:45:54;98578.17;;;3.33;100.00
76753;BME280;65687;51.308;16.916;2024-02-26T05:50:55;98580.67;;;3.42;100.00
76753;BME280;65687;51.308;16.916;2024-02-26T05:55:57;98579.95;;;3.51;100.00
76753;BME280;65687;51.308;16.916;2024-02-26T06:00:59;98582.46;;;3.61;100.00
76753;BME280;65687;51.308;16.916;2024-02-26T06:06:01;98582.73;;;3.67;100.00
76753;BME280;65687;51.308;16.916;2024-02-26T06:11:06;98589.79;;;3.72;100.00
76753;BME280;65687;51.308;16.916;2024-02-26T06:16:08;98591.55;;;3.75;100.00
76753;BME280;65687;51.308;16.916;2024-02-26T06:21:10;98589.69;;;3.80;100.00
76753;BME280;65687;51.308;16.916;2024-02-26T06:26:12;98590.73;;;3.85;100.00
76753;BME280;65687;51.308;16.916;2024-02-26T06:31:13;98595.09;;;3.95;100.00
76753;BME280;65687;51.308;16.916;2024-02-26T06:36:16;98596.99;;;4.05;100.00
76753;BME280;65687;51.308;16.916;2024-02-26T06:41:17;98599.04;;;4.17;100.00
76753;BME280;65687;51.308;16.916;2024-02-26T06:46:19;98593.66;;;4.27;100.00
76753;BME280;65687;51.308;16.916;2024-02-26T06:51:21;98593.42;;;4.33;100.00
76753;BME280;65687;51.308;16.916;2024-02-26T06:56:22;98595.77;;;4.38;99.96
76753;BME280;65687;51.308;16.916;2024-02-26T07:01:24;98592.79;;;4.43;99.91
76753;BME280;65687;51.308;16.916;2024-02-26T07:06:27;98595.32;;;4.53;99.84
76753;BME280;65687;51.308;16.916;2024-02-26T07:11:28;98597.66;;;4.63;99.43
76753;BME280;65687;51.308;16.916;2024-02-26T07:16:30;98599.29;;;4.72;99.18
76753;BME280;65687;51.308;16.916;2024-02-26T07:21:32;98606.90;;;4.78;98.95
76753;BME280;65687;51.308;16.916;2024-02-26T07:26:33;98607.05;;;4.86;98.73
76753;BME280;65687;51.308;16.916;2024-02-26T07:31:35;98609.64;;;4.99;98.49
76753;BME280;65687;51.308;16.916;2024-02-26T07:36:37;98615.64;;;5.21;98.10
76753;BME280;65687;51.308;16.916;2024-02-26T07:41:38;98618.07;;;5.46;97.31
76753;BME280;65687;51.308;16.916;2024-02-26T07:46:40;98618.57;;;5.66;96.34
76753;BME280;65687;51.308;16.916;2024-02-26T07:51:42;98623.27;;;5.82;96.29
76753;BME280;65687;51.308;16.916;2024-02-26T07:56:43;98627.02;;;6.04;95.05
76753;BME280;65687;51.308;16.916;2024-02-26T08:01:51;98622.00;;;6.31;93.77
76753;BME280;65687;51.308;16.916;2024-02-26T08:06:53;98622.92;;;6.56;93.01
76753;BME280;65687;51.308;16.916;2024-02-26T08:11:55;98626.63;;;6.79;92.31
76753;BME280;65687;51.308;16.916;2024-02-26T08:16:56;98626.23;;;7.03;91.13
76753;BME280;65687;51.308;16.916;2024-02-26T08:21:58;98623.45;;;7.27;89.00
76753;BME280;65687;51.308;16.916;2024-02-26T08:27:00;98627.88;;;7.55;87.10
76753;BME280;65687;51.308;16.916;2024-02-26T08:32:01;98627.11;;;7.79;86.93
76753;BME280;65687;51.308;16.916;2024-02-26T08:37:03;98624.62;;;8.00;85.84
76753;BME280;65687;51.308;16.916;2024-02-26T08:42:05;98623.94;;;8.25;85.74
76753;BME280;65687;51.308;16.916;2024-02-26T08:47:07;98620.25;;;8.46;83.75
76753;BME280;65687;51.308;16.916;2024-02-26T08:52:09;98619.55;;;8.68;82.60
76753;BME280;65687;51.308;16.916;2024-02-26T08:57:11;98620.92;;;8.88;81.86
76753;BME280;65687;51.308;16.916;2024-02-26T09:02:12;98621.06;;;9.07;81.92
76753;BME280;65687;51.308;16.916;2024-02-26T09:07:14;98615.64;;;9.23;81.42
76753;BME280;65687;51.308;16.916;2024-02-26T09:12:16;98616.59;;;9.35;80.53
76753;BME280;65687;51.308;16.916;2024-02-26T09:17:17;98613.33;;;9.40;79.60
76753;BME280;65687;51.308;16.916;2024-02-26T09:22:19;98615.02;;;9.47;79.83
76753;BME280;65687;51.308;16.916;2024-02-26T09:27:21;98611.36;;;9.55;79.38
76753;BME280;65687;51.308;16.916;2024-02-26T09:32:23;98609.73;;;9.67;79.19
76753;BME280;65687;51.308;16.916;2024-02-26T09:37:26;98610.79;;;9.78;78.74
76753;BME280;65687;51.308;16.916;2024-02-26T09:42:28;98613.54;;;9.82;77.59
76753;BME280;65687;51.308;16.916;2024-02-26T09:47:32;98611.48;;;9.86;77.61
76753;BME280;65687;51.308;16.916;2024-02-26T09:52:34;98603.38;;;9.95;77.39
76753;BME280;65687;51.308;16.916;2024-02-26T09:57:37;98604.52;;;10.09;76.94
76753;BME280;65687;51.308;16.916;2024-02-26T10:02:39;98609.55;;;10.26;74.76
76753;BME280;65687;51.308;16.916;2024-02-26T10:07:42;98612.63;;;10.30;73.67
76753;BME280;65687;51.308;16.916;2024-02-26T10:12:45;98621.00;;;10.40;72.81
76753;BME280;65687;51.308;16.916;2024-02-26T10:17:47;98624.29;;;10.60;72.30
76753;BME280;65687;51.308;16.916;2024-02-26T10:22:49;98624.82;;;10.68;72.14
76753;BME280;65687;51.308;16.916;2024-02-26T10:27:51;98620.92;;;10.86;72.39
76753;BME280;65687;51.308;16.916;2024-02-26T10:32:54;98618.84;;;11.16;71.43
76753;BME280;65687;51.308;16.916;2024-02-26T10:37:55;98618.33;;;11.16;69.88
76753;BME280;65687;51.308;16.916;2024-02-26T10:42:58;98620.17;;;11.16;70.04
76753;BME280;65687;51.308;16.916;2024-02-26T10:48:00;98620.13;;;11.23;68.76
76753;BME280;65687;51.308;16.916;2024-02-26T10:53:03;98620.28;;;11.18;68.88
76753;BME280;65687;51.308;16.916;2024-02-26T10:58:08;98621.00;;;11.19;69.55
76753;BME280;65687;51.308;16.916;2024-02-26T11:03:11;98617.02;;;11.29;69.37
76753;BME280;65687;51.308;16.916;2024-02-26T11:08:13;98612.71;;;11.31;67.63
76753;BME280;65687;51.308;16.916;2024-02-26T11:13:17;98606.77;;;11.39;67.48
76753;BME280;65687;51.308;16.916;2024-02-26T11:18:20;98602.58;;;11.60;66.36
76753;BME280;65687;51.308;16.916;2024-02-26T11:23:24;98594.44;;;11.75;66.07
76753;BME280;65687;51.308;16.916;2024-02-26T11:28:27;98588.46;;;11.95;64.55
76753;BME280;65687;51.308;16.916;2024-02-26T11:33:30;98582.34;;;12.16;64.37
76753;BME280;65687;51.308;16.916;2024-02-26T11:38:32;98578.15;;;12.30;64.37
76753;BME280;65687;51.308;16.916;2024-02-26T11:43:53;98577.41;;;12.33;64.00
76753;BME280;65687;51.308;16.916;2024-02-26T11:49:03;98582.59;;;12.18;63.27
76753;BME280;65687;51.308;16.916;2024-02-26T11:54:05;98575.39;;;12.11;63.78
76753;BME280;65687;51.308;16.916;2024-02-26T11:59:10;98576.66;;;12.18;63.19
76753;BME280;65687;51.308;16.916;2024-02-26T12:04:26;98571.84;;;12.25;63.69
76753;BME280;65687;51.308;16.916;2024-02-26T12:09:40;98573.61;;;12.31;63.22
76753;BME280;65687;51.308;16.916;2024-02-26T12:14:53;98569.84;;;12.34;63.30
76753;BME280;65687;51.308;16.916;2024-02-26T12:20:08;98576.31;;;12.35;61.86
76753;BME280;65687;51.308;16.916;2024-02-26T12:25:10;98573.11;;;12.22;62.18
76753;BME280;65687;51.308;16.916;2024-02-26T12:30:12;98572.80;;;12.14;62.06
76753;BME280;65687;51.308;16.916;2024-02-26T12:35:15;98574.45;;;12.13;62.66
76753;BME280;65687;51.308;16.916;2024-02-26T12:40:17;98573.35;;;12.02;62.00
76753;BME280;65687;51.308;16.916;2024-02-26T12:45:19;98571.46;;;11.97;61.86
76753;BME280;65687;51.308;16.916;2024-02-26T12:50:22;98572.91;;;12.04;62.00
76753;BME280;65687;51.308;16.916;2024-02-26T12:55:23;98568.00;;;12.12;61.94
76753;BME280;65687;51.308;16.916;2024-02-26T13:00:27;98564.14;;;12.18;61.17
76753;BME280;65687;51.308;16.916;2024-02-26T13:05:30;98570.98;;;12.19;62.15
76753;BME280;65687;51.308;16.916;2024-02-26T13:10:32;98577.44;;;12.20;61.15
76753;BME280;65687;51.308;16.916;2024-02-26T13:15:36;98578.41;;;12.15;62.06
76753;BME280;65687;51.308;16.916;2024-02-26T13:20:37;98583.05;;;12.12;61.93
76753;BME280;65687;51.308;16.916;2024-02-26T13:25:41;98587.67;;;12.09;59.86
76753;BME280;65687;51.308;16.916;2024-02-26T13:31:01;98585.10;;;12.04;59.12
76753;BME280;65687;51.308;16.916;2024-02-26T13:36:05;98587.92;;;12.03;59.65
76753;BME280;65687;51.308;16.916;2024-02-26T13:41:06;98592.04;;;12.00;60.00
76753;BME280;65687;51.308;16.916;2024-02-26T13:46:08;98597.96;;;11.95;61.23
76753;BME280;65687;51.308;16.916;2024-02-26T13:51:10;98591.05;;;11.91;61.19
76753;BME280;65687;51.308;16.916;2024-02-26T13:56:11;98589.92;;;11.89;61.81
76753;BME280;65687;51.308;16.916;2024-02-26T14:01:13;98590.85;;;11.87;61.67
76753;BME280;65687;51.308;16.916;2024-02-26T14:06:15;98592.41;;;11.88;61.82
76753;BME280;65687;51.308;16.916;2024-02-26T14:11:17;98592.19;;;11.86;61.98
76753;BME280;65687;51.308;16.916;2024-02-26T14:16:18;98592.27;;;11.84;62.32
76753;BME280;65687;51.308;16.916;2024-02-26T14:21:21;98588.09;;;11.81;62.91
76753;BME280;65687;51.308;16.916;2024-02-26T14:26:23;98593.03;;;11.78;62.82
76753;BME280;65687;51.308;16.916;2024-02-26T14:31:25;98593.20;;;11.74;63.01
76753;BME280;65687;51.308;16.916;2024-02-26T14:36:27;98594.98;;;11.72;62.52
76753;BME280;65687;51.308;16.916;2024-02-26T14:41:28;98599.61;;;11.70;62.71
76753;BME280;65687;51.308;16.916;2024-02-26T14:46:30;98600.65;;;11.66;63.19
76753;BME280;65687;51.308;16.916;2024-02-26T14:51:32;98602.92;;;11.64;63.73
76753;BME280;65687;51.308;16.916;2024-02-26T14:56:33;98604.48;;;11.61;63.54
76753;BME280;65687;51.308;16.916;2024-02-26T15:01:35;98605.20;;;11.57;64.31
76753;BME280;65687;51.308;16.916;2024-02-26T15:06:38;98609.55;;;11.53;65.08
76753;BME280;65687;51.308;16.916;2024-02-26T15:11:40;98605.38;;;11.49;65.64
76753;BME280;65687;51.308;16.916;2024-02-26T15:16:42;98601.52;;;11.46;65.65
76753;BME280;65687;51.308;16.916;2024-02-26T15:21:45;98603.71;;;11.42;65.94
76753;BME280;65687;51.308;16.916;2024-02-26T15:26:46;98607.61;;;11.39;66.31
76753;BME280;65687;51.308;16.916;2024-02-26T15:31:48;98612.77;;;11.32;67.69
76753;BME280;65687;51.308;16.916;2024-02-26T15:36:50;98618.14;;;11.20;69.92
76753;BME280;65687;51.308;16.916;2024-02-26T15:41:52;98622.42;;;11.05;70.84
76753;BME280;65687;51.308;16.916;2024-02-26T15:46:54;98625.52;;;10.95;71.79
76753;BME280;65687;51.308;16.916;2024-02-26T15:51:55;98629.43;;;10.85;72.07
76753;BME280;65687;51.308;16.916;2024-02-26T15:56:57;98632.57;;;10.71;74.11
76753;BME280;65687;51.308;16.916;2024-02-26T16:01:59;98636.59;;;10.60;74.50
76753;BME280;65687;51.308;16.916;2024-02-26T16:07:05;98639.45;;;10.48;74.97
76753;BME280;65687;51.308;16.916;2024-02-26T16:12:24;98646.11;;;10.39;76.34
76753;BME280;65687;51.308;16.916;2024-02-26T16:17:30;98653.46;;;10.30;76.29
76753;BME280;65687;51.308;16.916;2024-02-26T16:22:33;98655.36;;;10.24;76.45
76753;BME280;65687;51.308;16.916;2024-02-26T16:27:38;98662.63;;;10.14;76.61
76753;BME280;65687;51.308;16.916;2024-02-26T16:32:42;98662.80;;;10.04;77.74
76753;BME280;65687;51.308;16.916;2024-02-26T16:37:44;98671.43;;;9.94;77.75
76753;BME280;65687;51.308;16.916;2024-02-26T16:42:46;98676.07;;;9.85;78.53
76753;BME280;65687;51.308;16.916;2024-02-26T16:47:48;98681.35;;;9.73;79.31
76753;BME280;65687;51.308;16.916;2024-02-26T16:52:50;98688.02;;;9.61;79.97
76753;BME280;65687;51.308;16.916;2024-02-26T16:57:51;98685.99;;;9.54;79.80
76753;BME280;65687;51.308;16.916;2024-02-26T17:02:53;98686.77;;;9.50;80.31
76753;BME280;65687;51.308;16.916;2024-02-26T17:07:58;98692.81;;;9.46;80.54
76753;BME280;65687;51.308;16.916;2024-02-26T17:12:59;98698.44;;;9.44;80.20
76753;BME280;65687;51.308;16.916;2024-02-26T17:18:01;98698.84;;;9.42;79.83
76753;BME280;65687;51.308;16.916;2024-02-26T17:23:03;98705.16;;;9.37;80.16
76753;BME280;65687;51.308;16.916;2024-02-26T17:28:05;98707.91;;;9.35;80.61
76753;BME280;65687;51.308;16.916;2024-02-26T17:33:07;98710.20;;;9.30;80.97
76753;BME280;65687;51.308;16.916;2024-02-26T17:38:09;98715.91;;;9.23;81.94
76753;BME280;65687;51.308;16.916;2024-02-26T17:43:16;98720.95;;;9.13;82.47
76753;BME280;65687;51.308;16.916;2024-02-26T17:48:19;98729.02;;;9.10;82.13
76753;BME280;65687;51.308;16.916;2024-02-26T17:53:23;98734.10;;;9.07;82.16
76753;BME280;65687;51.308;16.916;2024-02-26T17:58:25;98741.59;;;9.05;82.22
76753;BME280;65687;51.308;16.916;2024-02-26T18:03:27;98748.02;;;9.00;82.84
76753;BME280;65687;51.308;16.916;2024-02-26T18:08:29;98750.45;;;8.95;82.39
76753;BME280;65687;51.308;16.916;2024-02-26T18:13:31;98757.44;;;8.94;82.20
76753;BME280;65687;51.308;16.916;2024-02-26T18:18:33;98765.38;;;8.91;82.90
76753;BME280;65687;51.308;16.916;2024-02-26T18:23:35;98764.70;;;8.87;82.45
76753;BME280;65687;51.308;16.916;2024-02-26T18:28:36;98771.30;;;8.88;82.73
76753;BME280;65687;51.308;16.916;2024-02-26T18:33:38;98771.28;;;8.84;83.18
76753;BME280;65687;51.308;16.916;2024-02-26T18:38:40;98770.20;;;8.80;83.70
76753;BME280;65687;51.308;16.916;2024-02-26T18:43:42;98770.59;;;8.78;83.64
76753;BME280;65687;51.308;16.916;2024-02-26T18:48:44;98776.45;;;8.78;84.10
76753;BME280;65687;51.308;16.916;2024-02-26T18:53:46;98774.14;;;8.75;84.66
76753;BME280;65687;51.308;16.916;2024-02-26T18:58:48;98775.03;;;8.73;84.36
76753;BME280;65687;51.308;16.916;2024-02-26T19:03:50;98772.69;;;8.70;84.52
76753;BME280;65687;51.308;16.916;2024-02-26T19:08:51;98778.47;;;8.68;85.04
76753;BME280;65687;51.308;16.916;2024-02-26T19:13:53;98780.65;;;8.65;85.33
76753;BME280;65687;51.308;16.916;2024-02-26T19:18:56;98785.76;;;8.60;85.53
76753;BME280;65687;51.308;16.916;2024-02-26T19:24:00;98786.68;;;8.56;85.21
76753;BME280;65687;51.308;16.916;2024-02-26T19:29:04;98792.01;;;8.55;85.02
76753;BME280;65687;51.308;16.916;2024-02-26T19:34:06;98800.73;;;8.54;85.48
76753;BME280;65687;51.308;16.916;2024-02-26T19:39:08;98807.92;;;8.50;86.35
76753;BME280;65687;51.308;16.916;2024-02-26T19:44:12;98808.10;;;8.47;85.71
76753;BME280;65687;51.308;16.916;2024-02-26T19:49:14;98807.56;;;8.47;85.68
76753;BME280;65687;51.308;16.916;2024-02-26T19:54:16;98807.46;;;8.45;86.01
76753;BME280;65687;51.308;16.916;2024-02-26T19:59:18;98811.45;;;8.44;86.26
76753;BME280;65687;51.308;16.916;2024-02-26T20:04:21;98814.09;;;8.40;86.99
76753;BME280;65687;51.308;16.916;2024-02-26T20:09:25;98812.39;;;8.34;87.07
76753;BME280;65687;51.308;16.916;2024-02-26T20:14:31;98815.99;;;8.30;86.84
76753;BME280;65687;51.308;16.916;2024-02-26T20:19:33;98815.54;;;8.25;87.36
76753;BME280;65687;51.308;16.916;2024-02-26T20:24:34;98816.14;;;8.24;87.44
76753;BME280;65687;51.308;16.916;2024-02-26T20:29:37;98816.39;;;8.25;87.20
76753;BME280;65687;51.308;16.916;2024-02-26T20:34:38;98817.48;;;8.24;87.48
76753;BME280;65687;51.308;16.916;2024-02-26T20:39:41;98822.33;;;8.26;87.31
76753;BME280;65687;51.308;16.916;2024-02-26T20:44:43;98824.21;;;8.27;87.40
76753;BME280;65687;51.308;16.916;2024-02-26T20:49:45;98827.40;;;8.27;87.39
76753;BME280;65687;51.308;16.916;2024-02-26T20:54:48;98832.47;;;8.24;87.44
76753;BME280;65687;51.308;16.916;2024-02-26T20:59:49;98843.09;;;8.22;87.59
76753;BME280;65687;51.308;16.916;2024-02-26T21:04:51;98846.61;;;8.19;87.45
76753;BME280;65687;51.308;16.916;2024-02-26T21:09:53;98852.79;;;8.06;87.99
76753;BME280;65687;51.308;16.916;2024-02-26T21:14:55;98858.89;;;7.93;88.87
76753;BME280;65687;51.308;16.916;2024-02-26T21:19:57;98871.26;;;7.89;88.90
76753;BME280;65687;51.308;16.916;2024-02-26T21:24:59;98872.95;;;7.86;88.83
76753;BME280;65687;51.308;16.916;2024-02-26T21:30:01;98872.88;;;7.80;89.01
76753;BME280;65687;51.308;16.916;2024-02-26T21:35:04;98884.95;;;7.68;89.31
76753;BME280;65687;51.308;16.916;2024-02-26T21:40:07;98884.99;;;7.63;89.30
76753;BME280;65687;51.308;16.916;2024-02-26T21:45:12;98889.36;;;7.52;89.68
76753;BME280;65687;51.308;16.916;2024-02-26T21:50:15;98885.48;;;7.41;90.18
76753;BME280;65687;51.308;16.916;2024-02-26T21:55:17;98885.37;;;7.37;90.25
76753;BME280;65687;51.308;16.916;2024-02-26T22:00:20;98894.32;;;7.32;89.96
76753;BME280;65687;51.308;16.916;2024-02-26T22:05:22;98900.52;;;7.24;89.95
76753;BME280;65687;51.308;16.916;2024-02-26T22:10:24;98909.22;;;7.18;90.05
76753;BME280;65687;51.308;16.916;2024-02-26T22:15:26;98917.68;;;7.06;90.26
76753;BME280;65687;51.308;16.916;2024-02-26T22:20:27;98917.05;;;6.91;90.17
76753;BME280;65687;51.308;16.916;2024-02-26T22:25:29;98918.48;;;6.79;90.50
76753;BME280;65687;51.308;16.916;2024-02-26T22:30:31;98923.05;;;6.69;90.77
76753;BME280;65687;51.308;16.916;2024-02-26T22:35:33;98932.34;;;6.63;90.87
76753;BME280;65687;51.308;16.916;2024-02-26T22:40:36;98937.20;;;6.60;90.96
76753;BME280;65687;51.308;16.916;2024-02-26T22:45:38;98942.75;;;6.52;91.12
76753;BME280;65687;51.308;16.916;2024-02-26T22:50:39;98944.95;;;6.48;91.12
76753;BME280;65687;51.308;16.916;2024-02-26T22:55:41;98942.38;;;6.42;91.29
76753;BME280;65687;51.308;16.916;2024-02-26T23:00:46;98948.77;;;6.35;91.57
76753;BME280;65687;51.308;16.916;2024-02-26T23:05:47;98950.65;;;6.28;91.64
76753;BME280;65687;51.308;16.916;2024-02-26T23:10:49;98947.83;;;6.21;91.98
76753;BME280;65687;51.308;16.916;2024-02-26T23:15:51;98955.16;;;6.15;92.51
76753;BME280;65687;51.308;16.916;2024-02-26T23:20:55;98959.20;;;6.10;92.29
76753;BME280;65687;51.308;16.916;2024-02-26T23:25:57;98962.83;;;6.09;92.82
76753;BME280;65687;51.308;16.916;2024-02-26T23:30:58;98966.29;;;6.09;92.88
76753;BME280;65687;51.308;16.916;2024-02-26T23:36:00;98966.56;;;6.08;92.77
76753;BME280;65687;51.308;16.916;2024-02-26T23:41:02;98975.85;;;6.06;92.81
76753;BME280;65687;51.308;16.916;2024-02-26T23:46:04;98978.77;;;6.03;92.73
76753;BME280;65687;51.308;16.916;2024-02-26T23:51:06;98978.43;;;5.86;93.07
76753;BME280;65687;51.308;16.916;2024-02-26T23:56:07;98979.68;;;5.83;93.20
